createdAt,value
2023-02-08T00:00:37.997Z,10.20
2023-02-08T00:01:39.573Z,10.27
2023-02-08T00:02:41.187Z,11.40
2023-02-08T00:03:42.588Z,12.20
2023-02-08T00:04:44.136Z,10.30
2023-02-08T00:05:46.683Z,9.53
2023-02-08T00:06:51.268Z,10.13
2023-02-08T00:07:52.600Z,10.60
2023-02-08T00:08:57.079Z,10.50
2023-02-08T00:09:58.409Z,9.47
2023-02-08T00:10:59.778Z,11.70
2023-02-08T00:12:04.435Z,9.43
2023-02-08T00:14:32.873Z,11.97
2023-02-08T00:15:34.209Z,10.67
2023-02-08T00:16:35.552Z,12.50
2023-02-08T00:17:36.936Z,10.67
2023-02-08T00:18:38.316Z,11.03
2023-02-08T00:19:39.695Z,11.10
2023-02-08T00:20:43.519Z,10.63
2023-02-08T00:21:44.866Z,11.23
2023-02-08T00:22:46.256Z,11.63
2023-02-08T00:23:47.640Z,11.70
2023-02-08T00:24:50.077Z,10.90
2023-02-08T00:25:51.409Z,10.43
2023-02-08T00:26:53.964Z,12.73
2023-02-08T00:27:55.328Z,10.40
2023-02-08T00:28:56.688Z,9.93
2023-02-08T00:29:58.032Z,10.23
2023-02-08T00:30:59.414Z,11.57
2023-02-08T00:32:00.791Z,12.03
2023-02-08T00:33:03.140Z,13.03
2023-02-08T00:34:04.440Z,12.47
2023-02-08T00:35:05.995Z,12.17
2023-02-08T00:36:08.779Z,13.27
2023-02-08T00:37:10.890Z,11.53
2023-02-08T00:38:12.202Z,11.50
2023-02-08T00:39:13.614Z,11.10
2023-02-08T00:40:15.717Z,11.63
2023-02-08T00:41:17.052Z,11.67
2023-02-08T00:42:18.380Z,11.63
2023-02-08T00:43:19.720Z,11.13
2023-02-08T00:44:21.051Z,10.27
2023-02-08T00:45:23.565Z,10.43
2023-02-08T00:46:25.015Z,10.77
2023-02-08T00:47:26.399Z,11.90
2023-02-08T00:48:28.607Z,12.17
2023-02-08T00:49:29.895Z,12.20
2023-02-08T00:50:31.270Z,10.37
2023-02-08T00:51:32.625Z,9.60
2023-02-08T00:52:33.959Z,12.13
2023-02-08T00:53:36.624Z,13.07
2023-02-08T00:54:39.308Z,10.47
2023-02-08T00:55:40.634Z,11.97
2023-02-08T00:56:42.044Z,12.67
2023-02-08T00:57:43.337Z,12.80
2023-02-08T00:58:45.211Z,11.07
2023-02-08T00:59:46.714Z,11.67
2023-02-08T01:00:50.420Z,10.30
2023-02-08T01:01:51.894Z,11.43
2023-02-08T01:02:53.203Z,11.50
2023-02-08T01:03:54.570Z,11.33
2023-02-08T01:04:55.874Z,11.27
2023-02-08T01:06:00.522Z,9.90
2023-02-08T01:07:01.877Z,11.17
2023-02-08T01:08:03.343Z,10.30
2023-02-08T01:09:04.719Z,11.37
2023-02-08T01:10:07.109Z,10.33
2023-02-08T01:11:10.954Z,10.17
2023-02-08T01:12:12.427Z,12.33
2023-02-08T01:13:14.064Z,10.60
2023-02-08T01:14:15.681Z,9.90
2023-02-08T01:15:17.009Z,9.33
2023-02-08T01:16:20.005Z,12.00
2023-02-08T01:17:21.346Z,11.47
2023-02-08T01:18:22.986Z,12.30
2023-02-08T01:19:24.373Z,10.60
2023-02-08T01:20:25.774Z,11.07
2023-02-08T01:21:28.775Z,10.43
2023-02-08T01:22:30.308Z,11.20
2023-02-08T01:23:31.671Z,12.20
2023-02-08T01:24:33.178Z,10.57
2023-02-08T01:25:34.462Z,10.53
2023-02-08T01:26:36.095Z,10.80
2023-02-08T01:27:40.170Z,10.47
2023-02-08T01:28:41.500Z,10.37
2023-02-08T01:29:43.527Z,10.00
2023-02-08T01:30:44.911Z,11.73
2023-02-08T01:31:46.338Z,10.93
2023-02-08T01:32:47.700Z,11.43
2023-02-08T01:33:49.080Z,12.20
2023-02-08T01:34:50.445Z,11.90
2023-02-08T01:35:52.673Z,13.10
2023-02-08T01:36:54.136Z,12.63
2023-02-08T01:37:55.488Z,11.40
2023-02-08T01:38:56.831Z,11.07
2023-02-08T01:39:59.348Z,12.03
2023-02-08T01:41:00.789Z,12.27
2023-02-08T01:42:02.171Z,12.50
2023-02-08T01:43:03.484Z,13.57
2023-02-08T01:44:08.361Z,12.07
2023-02-08T01:45:15.923Z,15.40
2023-02-08T01:46:17.389Z,12.30
2023-02-08T01:47:18.774Z,15.10
2023-02-08T01:48:22.225Z,12.20
2023-02-08T01:49:28.769Z,12.53
2023-02-08T01:50:34.315Z,11.97
2023-02-08T01:51:39.265Z,10.80
2023-02-08T01:52:40.597Z,11.07
2023-02-08T01:53:42.835Z,13.30
2023-02-08T01:54:53.537Z,12.43
2023-02-08T01:55:56.541Z,13.27
2023-02-08T01:56:57.890Z,10.13
2023-02-08T01:58:01.336Z,14.13
2023-02-08T01:59:05.776Z,12.57
2023-02-08T02:00:08.484Z,11.03
2023-02-08T02:01:15.828Z,11.23
2023-02-08T02:02:19.754Z,11.73
2023-02-08T02:03:22.480Z,11.33
2023-02-08T02:04:23.921Z,11.07
2023-02-08T02:05:27.880Z,11.67
2023-02-08T02:06:32.878Z,12.03
2023-02-08T02:07:34.256Z,12.07
2023-02-08T02:08:35.927Z,12.53
2023-02-08T02:09:43.815Z,13.00
2023-02-08T02:10:47.461Z,12.53
2023-02-08T02:11:50.104Z,12.93
2023-02-08T02:12:53.941Z,12.77
2023-02-08T02:13:55.302Z,13.07
2023-02-08T02:14:56.740Z,14.17
2023-02-08T02:15:58.051Z,11.90
2023-02-08T02:17:00.404Z,12.03
2023-02-08T02:18:02.569Z,13.83
2023-02-08T02:19:05.500Z,14.07
2023-02-08T02:20:37.987Z,13.47
2023-02-08T02:21:59.492Z,13.33
2023-02-08T02:23:19.252Z,11.63
2023-02-08T02:24:42.162Z,11.43
2023-02-08T02:25:52.183Z,13.20
2023-02-08T02:27:09.930Z,14.67
2023-02-08T02:28:14.348Z,13.33
2023-02-08T02:29:30.708Z,11.67
2023-02-08T02:30:37.306Z,14.43
2023-02-08T02:31:58.757Z,17.43
2023-02-08T02:33:30.383Z,14.20
2023-02-08T02:34:37.748Z,13.67
2023-02-08T02:35:50.584Z,14.47
2023-02-08T02:36:51.932Z,15.27
2023-02-08T02:37:56.253Z,13.70
2023-02-08T02:39:07.355Z,15.47
2023-02-08T02:40:26.576Z,14.60
2023-02-08T02:41:54.252Z,15.23
2023-02-08T02:43:18.676Z,14.53
2023-02-08T02:44:24.902Z,14.23
2023-02-08T02:45:34.323Z,15.37
2023-02-08T02:46:40.651Z,13.37
2023-02-08T02:47:49.704Z,15.57
2023-02-08T02:49:06.335Z,16.87
2023-02-08T02:50:25.100Z,16.03
2023-02-08T02:51:34.428Z,13.67
2023-02-08T02:52:39.651Z,16.57
2023-02-08T02:53:52.856Z,18.47
2023-02-08T02:54:55.922Z,15.93
2023-02-08T02:56:00.828Z,15.27
2023-02-08T02:57:05.570Z,16.40
2023-02-08T02:58:08.095Z,18.50
2023-02-08T02:59:11.409Z,15.60
2023-02-08T03:00:17.756Z,16.03
2023-02-08T03:01:25.974Z,17.77
2023-02-08T03:02:27.821Z,17.17
2023-02-08T03:03:31.414Z,16.80
2023-02-08T03:04:32.774Z,17.93
2023-02-08T03:05:34.478Z,16.83
2023-02-08T03:06:41.575Z,16.03
2023-02-08T03:07:42.903Z,16.70
2023-02-08T03:08:54.242Z,15.23
2023-02-08T03:10:05.547Z,17.50
2023-02-08T03:11:15.900Z,17.87
2023-02-08T03:12:29.065Z,17.13
2023-02-08T03:13:42.088Z,17.40
2023-02-08T03:14:59.036Z,20.50
2023-02-08T03:16:03.248Z,18.10
2023-02-08T03:17:24.298Z,18.27
2023-02-08T03:18:40.961Z,18.30
2023-02-08T03:20:03.199Z,17.77
2023-02-08T03:21:09.421Z,17.53
2023-02-08T03:22:16.775Z,18.07
2023-02-08T03:23:29.028Z,19.87
2023-02-08T03:24:42.492Z,18.03
2023-02-08T03:25:52.556Z,18.73
2023-02-08T03:27:12.340Z,16.70
2023-02-08T03:28:18.935Z,17.73
2023-02-08T03:29:26.866Z,16.43
2023-02-08T03:30:32.086Z,21.67
2023-02-08T03:31:41.619Z,19.03
2023-02-08T03:32:42.991Z,19.27
2023-02-08T03:33:59.236Z,20.50
2023-02-08T03:35:04.661Z,17.70
2023-02-08T03:36:08.322Z,21.53
2023-02-08T03:37:11.823Z,21.57
2023-02-08T03:38:15.858Z,18.33
2023-02-08T03:39:19.575Z,19.80
2023-02-08T03:40:22.655Z,20.33
2023-02-08T03:41:30.316Z,20.20
2023-02-08T03:42:32.567Z,21.13
2023-02-08T03:43:46.634Z,19.60
2023-02-08T03:44:53.243Z,19.53
2023-02-08T03:45:59.643Z,21.27
2023-02-08T03:47:05.294Z,21.77
2023-02-08T03:48:08.081Z,20.67
2023-02-08T03:49:13.446Z,19.23
2023-02-08T03:50:17.380Z,21.43
2023-02-08T03:51:20.564Z,19.87
2023-02-08T03:52:22.542Z,17.50
2023-02-08T03:53:24.794Z,18.23
2023-02-08T03:54:28.113Z,23.80
2023-02-08T03:55:30.692Z,17.70
2023-02-08T03:56:37.489Z,20.97
2023-02-08T03:57:44.452Z,17.80
2023-02-08T03:58:48.219Z,17.93
2023-02-08T03:59:57.975Z,19.37
2023-02-08T04:01:02.762Z,17.33
2023-02-08T04:02:05.781Z,17.03
2023-02-08T04:03:13.002Z,17.80
2023-02-08T04:04:15.195Z,19.37
2023-02-08T04:05:16.625Z,22.73
2023-02-08T04:06:17.970Z,18.47
2023-02-08T04:07:19.880Z,21.97
2023-02-08T04:08:21.908Z,19.60
2023-02-08T04:09:23.334Z,17.70
2023-02-08T04:10:24.828Z,16.70
2023-02-08T04:11:26.190Z,19.33
2023-02-08T04:12:27.509Z,17.70
2023-02-08T04:13:28.889Z,20.53
2023-02-08T04:14:30.214Z,18.27
2023-02-08T04:15:31.904Z,18.27
2023-02-08T04:16:33.291Z,18.13
2023-02-08T04:17:34.609Z,17.33
2023-02-08T04:18:36.047Z,18.40
2023-02-08T04:19:37.468Z,19.23
2023-02-08T04:20:39.063Z,20.70
2023-02-08T04:21:40.546Z,18.60
2023-02-08T04:22:41.837Z,20.87
2023-02-08T04:23:43.171Z,18.17
2023-02-08T04:24:44.491Z,15.87
2023-02-08T04:25:45.788Z,17.67
2023-02-08T04:26:47.300Z,19.93
2023-02-08T04:27:48.711Z,17.27
2023-02-08T04:28:50.325Z,17.70
2023-02-08T04:29:51.643Z,17.67
2023-02-08T04:30:54.881Z,19.17
2023-02-08T04:31:56.379Z,18.57
2023-02-08T04:32:59.909Z,18.33
2023-02-08T04:34:01.234Z,19.03
2023-02-08T04:35:02.634Z,20.43
2023-02-08T04:36:04.203Z,18.67
2023-02-08T04:37:05.861Z,17.23
2023-02-08T04:38:07.342Z,18.27
2023-02-08T04:39:08.673Z,18.87
2023-02-08T04:40:10.494Z,19.60
2023-02-08T04:41:11.891Z,17.03
2023-02-08T04:42:13.197Z,17.07
2023-02-08T04:43:14.510Z,20.23
2023-02-08T04:44:15.889Z,16.37
2023-02-08T04:45:17.195Z,20.27
2023-02-08T04:46:18.574Z,18.83
2023-02-08T04:47:19.910Z,17.57
2023-02-08T04:48:21.226Z,19.60
2023-02-08T04:49:22.578Z,20.63
2023-02-08T04:50:24.011Z,20.47
2023-02-08T04:51:25.345Z,21.17
2023-02-08T04:52:26.766Z,17.00
2023-02-08T04:53:28.086Z,18.53
2023-02-08T04:54:29.541Z,19.40
2023-02-08T04:55:30.832Z,17.17
2023-02-08T04:56:32.312Z,19.30
2023-02-08T04:57:36.194Z,18.93
2023-02-08T04:58:37.607Z,20.43
2023-02-08T04:59:39.109Z,20.20
2023-02-08T05:00:43.515Z,21.43
2023-02-08T05:01:47.524Z,25.87
2023-02-08T05:02:52.985Z,27.07
2023-02-08T05:03:54.318Z,29.77
2023-02-08T05:04:55.731Z,37.70
2023-02-08T05:05:58.000Z,34.20
2023-02-08T05:06:59.368Z,31.65
2023-02-08T05:08:00.730Z,30.17
2023-02-08T05:09:02.057Z,28.50
2023-02-08T05:10:04.452Z,25.57
2023-02-08T05:11:06.143Z,24.07
2023-02-08T05:12:07.527Z,22.23
2023-02-08T05:13:08.872Z,20.47
2023-02-08T05:14:10.222Z,20.70
2023-02-08T05:15:11.634Z,22.17
2023-02-08T05:16:13.013Z,19.63
2023-02-08T05:17:14.406Z,18.43
2023-02-08T05:18:15.745Z,20.90
2023-02-08T05:19:17.140Z,21.03
2023-02-08T05:20:18.544Z,19.57
2023-02-08T05:21:19.929Z,19.77
2023-02-08T05:22:21.270Z,19.93
2023-02-08T05:23:22.610Z,19.80
2023-02-08T05:24:23.968Z,20.00
2023-02-08T05:25:25.505Z,21.50
2023-02-08T05:26:26.931Z,20.80
2023-02-08T05:27:28.298Z,22.77
2023-02-08T05:28:29.592Z,21.10
2023-02-08T05:29:30.986Z,20.13
2023-02-08T05:30:32.312Z,18.77
2023-02-08T05:31:33.858Z,27.23
2023-02-08T05:32:35.363Z,21.87
2023-02-08T05:33:36.693Z,21.77
2023-02-08T05:34:38.366Z,18.60
2023-02-08T05:35:39.824Z,21.83
2023-02-08T05:36:41.195Z,22.27
2023-02-08T05:37:42.642Z,21.23
2023-02-08T05:38:44.423Z,25.20
2023-02-08T05:39:45.938Z,19.90
2023-02-08T05:40:52.046Z,19.93
2023-02-08T05:41:56.402Z,21.10
2023-02-08T05:42:58.045Z,18.93
2023-02-08T05:43:59.408Z,24.13
2023-02-08T05:45:00.840Z,22.67
2023-02-08T05:46:10.204Z,21.23
2023-02-08T05:47:24.494Z,19.87
2023-02-08T05:48:29.843Z,24.33
2023-02-08T05:49:38.654Z,21.00
2023-02-08T05:50:40.533Z,21.27
2023-02-08T05:51:54.576Z,19.43
2023-02-08T05:53:14.841Z,21.70
2023-02-08T05:54:17.204Z,21.90
2023-02-08T05:55:18.629Z,24.23
2023-02-08T05:56:20.083Z,19.42
2023-02-08T05:57:43.655Z,20.50
2023-02-08T05:58:53.231Z,22.67
2023-02-08T05:59:56.925Z,24.77
2023-02-08T06:01:05.073Z,22.10
2023-02-08T06:02:06.459Z,22.23
2023-02-08T06:03:15.408Z,20.50
2023-02-08T06:04:17.074Z,22.73
2023-02-08T06:05:22.868Z,21.63
2023-02-08T06:06:24.762Z,22.67
2023-02-08T06:07:29.790Z,22.13
2023-02-08T06:08:39.141Z,25.13
2023-02-08T06:09:43.216Z,26.33
2023-02-08T06:10:46.012Z,23.00
2023-02-08T06:11:53.110Z,31.10
2023-02-08T06:12:56.582Z,27.03
2023-02-08T06:13:57.900Z,25.00
2023-02-08T06:14:59.304Z,26.70
2023-02-08T06:16:03.204Z,24.30
2023-02-08T06:17:04.550Z,24.23
2023-02-08T06:18:05.930Z,24.57
2023-02-08T06:19:07.350Z,26.50
2023-02-08T06:20:14.880Z,28.10
2023-02-08T06:21:41.607Z,24.00
2023-02-08T06:22:44.430Z,24.67
2023-02-08T06:24:07.113Z,28.80
2023-02-08T06:25:17.467Z,25.17
2023-02-08T06:26:18.903Z,23.90
2023-02-08T06:27:26.596Z,24.63
2023-02-08T06:28:28.152Z,21.57
2023-02-08T06:29:30.431Z,25.33
2023-02-08T06:30:39.692Z,24.10
2023-02-08T06:31:41.537Z,22.10
2023-02-08T06:32:49.129Z,21.63
2023-02-08T06:33:50.524Z,21.40
2023-02-08T06:34:51.996Z,27.60
2023-02-08T06:35:56.183Z,20.80
2023-02-08T06:37:28.427Z,20.97
2023-02-08T06:38:29.942Z,28.53
2023-02-08T06:39:31.742Z,23.90
2023-02-08T06:40:33.160Z,24.02
2023-02-08T06:41:45.242Z,23.23
2023-02-08T06:42:47.496Z,23.87
2023-02-08T06:43:55.232Z,29.20
2023-02-08T06:45:01.066Z,28.20
2023-02-08T06:46:04.935Z,26.53
2023-02-08T06:47:21.402Z,27.17
2023-02-08T06:48:22.717Z,26.67
2023-02-08T06:49:24.128Z,24.00
2023-02-08T06:50:25.525Z,22.67
2023-02-08T06:51:27.390Z,25.43
2023-02-08T06:52:28.818Z,26.27
2023-02-08T06:53:33.081Z,28.80
2023-02-08T06:54:34.386Z,27.33
2023-02-08T06:55:35.735Z,27.00
2023-02-08T06:56:37.077Z,25.10
2023-02-08T06:57:40.678Z,26.80
2023-02-08T06:58:42.002Z,26.67
2023-02-08T07:00:04.651Z,26.83
2023-02-08T07:01:30.921Z,25.27
2023-02-08T07:02:35.403Z,24.07
2023-02-08T07:03:36.801Z,23.80
2023-02-08T07:04:38.439Z,27.30
2023-02-08T07:05:40.116Z,25.47
2023-02-08T07:06:41.472Z,24.67
2023-02-08T07:07:42.819Z,25.13
2023-02-08T07:09:04.476Z,24.37
2023-02-08T07:10:14.765Z,23.40
2023-02-08T07:11:17.478Z,23.97
2023-02-08T07:12:21.044Z,22.53
2023-02-08T07:13:22.617Z,26.50
2023-02-08T07:14:36.928Z,26.27
2023-02-08T07:15:38.269Z,24.30
2023-02-08T07:16:39.795Z,23.80
2023-02-08T07:17:41.179Z,23.70
2023-02-08T07:18:42.947Z,22.97
2023-02-08T07:19:44.547Z,25.23
2023-02-08T07:20:45.958Z,24.47
2023-02-08T07:21:47.338Z,24.77
2023-02-08T07:22:48.666Z,23.37
2023-02-08T07:23:52.023Z,24.60
2023-02-08T07:24:55.176Z,24.57
2023-02-08T07:25:59.967Z,25.50
2023-02-08T07:27:07.387Z,24.03
2023-02-08T07:28:13.189Z,25.37
2023-02-08T07:29:17.575Z,27.57
2023-02-08T07:30:23.351Z,31.20
2023-02-08T07:31:31.706Z,25.83
2023-02-08T07:32:34.787Z,24.20
2023-02-08T07:33:36.717Z,24.33
2023-02-08T07:34:46.427Z,24.43
2023-02-08T07:35:47.973Z,24.77
2023-02-08T07:36:51.540Z,25.87
2023-02-08T07:38:02.209Z,26.90
2023-02-08T07:39:03.672Z,29.63
2023-02-08T07:40:05.211Z,27.57
2023-02-08T07:41:08.181Z,23.93
2023-02-08T07:42:12.451Z,29.03
2023-02-08T07:43:27.305Z,26.33
2023-02-08T07:44:33.969Z,24.90
2023-02-08T07:45:37.322Z,32.70
2023-02-08T07:48:02.673Z,27.97
2023-02-08T07:49:11.376Z,27.33
2023-02-08T07:50:12.967Z,26.77
2023-02-08T07:51:20.360Z,25.17
2023-02-08T07:52:24.602Z,25.80
2023-02-08T07:53:26.251Z,23.97
2023-02-08T07:54:27.774Z,27.17
2023-02-08T07:55:29.199Z,26.00
2023-02-08T07:56:30.889Z,26.83
2023-02-08T07:57:35.222Z,22.97
2023-02-08T07:58:39.607Z,24.77
2023-02-08T07:59:41.061Z,24.17
2023-02-08T08:00:46.421Z,24.27
2023-02-08T08:01:51.241Z,25.47
2023-02-08T08:02:53.473Z,23.80
2023-02-08T08:03:54.950Z,25.60
2023-02-08T08:04:56.343Z,24.40
2023-02-08T08:05:57.741Z,22.73
2023-02-08T08:07:03.273Z,21.50
2023-02-08T08:08:04.612Z,23.03
2023-02-08T08:09:05.928Z,21.63
2023-02-08T08:10:07.288Z,23.13
2023-02-08T08:11:08.965Z,26.07
2023-02-08T08:12:11.796Z,22.43
2023-02-08T08:13:16.024Z,22.70
2023-02-08T08:14:17.450Z,22.07
2023-02-08T08:15:22.417Z,20.33
2023-02-08T08:16:24.157Z,21.17
2023-02-08T08:17:25.535Z,18.50
2023-02-08T08:18:26.888Z,18.83
2023-02-08T08:19:35.784Z,17.47
2023-02-08T08:20:37.102Z,17.60
2023-02-08T08:21:38.665Z,18.93
2023-02-08T08:22:40.076Z,21.80
2023-02-08T08:23:41.485Z,17.10
2023-02-08T08:24:42.754Z,19.20
2023-02-08T08:25:44.094Z,17.90
2023-02-08T08:26:45.410Z,17.20
2023-02-08T08:27:46.729Z,16.40
2023-02-08T08:28:48.062Z,17.10
2023-02-08T08:29:49.385Z,17.57
2023-02-08T08:30:50.766Z,17.37
2023-02-08T08:31:52.405Z,15.57
2023-02-08T08:32:53.742Z,13.53
2023-02-08T08:33:55.412Z,17.87
2023-02-08T08:34:56.711Z,17.67
2023-02-08T08:35:58.065Z,16.13
2023-02-08T08:37:00.461Z,16.63
2023-02-08T08:38:01.826Z,15.53
2023-02-08T08:39:03.436Z,16.03
2023-02-08T08:40:06.635Z,16.23
2023-02-08T08:41:09.224Z,14.00
2023-02-08T08:42:10.574Z,17.43
2023-02-08T08:43:11.900Z,17.00
2023-02-08T08:44:13.291Z,15.67
2023-02-08T08:45:14.698Z,16.23
2023-02-08T08:46:16.738Z,16.73
2023-02-08T08:47:18.544Z,15.90
2023-02-08T08:48:19.951Z,14.87
2023-02-08T08:49:21.420Z,14.67
2023-02-08T08:50:22.947Z,16.60
2023-02-08T08:51:24.347Z,15.03
2023-02-08T08:52:25.714Z,15.80
2023-02-08T08:53:27.141Z,14.13
2023-02-08T08:54:28.491Z,14.60
2023-02-08T08:55:29.877Z,14.70
2023-02-08T08:56:31.673Z,14.83
2023-02-08T08:57:33.112Z,15.00
2023-02-08T08:58:34.501Z,15.70
2023-02-08T08:59:35.927Z,16.43
2023-02-08T09:00:37.211Z,15.07
2023-02-08T09:01:39.019Z,14.57
2023-02-08T09:02:40.377Z,14.77
2023-02-08T09:03:41.771Z,14.23
2023-02-08T09:04:43.203Z,17.93
2023-02-08T09:05:44.560Z,15.33
2023-02-08T09:06:45.943Z,15.97
2023-02-08T09:07:47.343Z,16.43
2023-02-08T09:08:51.431Z,15.63
2023-02-08T09:09:53.072Z,16.77
2023-02-08T09:10:54.390Z,15.13
2023-02-08T09:11:55.693Z,16.73
2023-02-08T09:12:57.496Z,15.57
2023-02-08T09:13:59.270Z,15.70
2023-02-08T09:15:00.622Z,17.63
2023-02-08T09:16:06.304Z,14.17
2023-02-08T09:17:08.142Z,14.03
2023-02-08T09:18:09.490Z,14.67
2023-02-08T09:19:10.814Z,15.53
2023-02-08T09:20:12.307Z,14.93
2023-02-08T09:21:15.289Z,14.63
2023-02-08T09:22:16.694Z,15.07
2023-02-08T09:23:18.028Z,15.40
2023-02-08T09:24:19.414Z,15.53
2023-02-08T09:25:20.763Z,14.60
2023-02-08T09:26:22.307Z,14.40
2023-02-08T09:27:23.676Z,15.50
2023-02-08T09:28:25.056Z,17.30
2023-02-08T09:29:32.449Z,14.10
2023-02-08T09:30:34.023Z,13.03
2023-02-08T09:31:37.737Z,16.37
2023-02-08T09:32:39.939Z,17.40
2023-02-08T09:33:41.346Z,16.10
2023-02-08T09:34:42.643Z,15.57
2023-02-08T09:35:44.311Z,15.33
2023-02-08T09:36:45.781Z,15.30
2023-02-08T09:37:47.200Z,16.17
2023-02-08T09:38:49.332Z,17.67
2023-02-08T09:39:50.908Z,15.53
2023-02-08T09:41:02.018Z,16.07
2023-02-08T09:42:13.067Z,16.27
2023-02-08T09:43:21.931Z,15.90
2023-02-08T09:44:26.343Z,14.33
2023-02-08T09:45:47.904Z,16.63
2023-02-08T09:47:03.509Z,14.03
2023-02-08T09:48:15.435Z,13.87
2023-02-08T09:49:20.182Z,14.37
2023-02-08T09:50:24.913Z,15.40
2023-02-08T09:51:26.231Z,14.37
2023-02-08T09:52:53.947Z,13.67
2023-02-08T09:53:58.836Z,15.37
2023-02-08T09:55:03.149Z,16.97
2023-02-08T09:56:05.631Z,14.07
2023-02-08T09:57:16.493Z,16.20
2023-02-08T09:58:23.870Z,15.43
2023-02-08T09:59:26.959Z,15.50
2023-02-08T10:00:36.222Z,13.70
2023-02-08T10:01:37.878Z,15.23
2023-02-08T10:02:39.323Z,13.17
2023-02-08T10:03:42.476Z,14.07
2023-02-08T10:04:46.600Z,13.20
2023-02-08T10:05:48.189Z,13.57
2023-02-08T10:06:50.247Z,15.17
2023-02-08T10:07:51.683Z,14.23
2023-02-08T10:08:53.375Z,15.50
2023-02-08T10:09:56.331Z,15.97
2023-02-08T10:11:12.685Z,15.80
2023-02-08T10:12:33.016Z,15.03
2023-02-08T10:13:53.418Z,14.57
2023-02-08T10:14:54.736Z,15.73
2023-02-08T10:16:16.186Z,14.77
2023-02-08T10:17:29.194Z,15.57
2023-02-08T10:18:49.121Z,14.37
2023-02-08T10:19:59.841Z,16.33
2023-02-08T10:21:01.113Z,15.67
2023-02-08T10:22:21.075Z,14.43
2023-02-08T10:23:23.287Z,12.17
2023-02-08T10:24:34.990Z,16.17
2023-02-08T10:25:36.333Z,14.77
2023-02-08T10:26:44.408Z,14.70
2023-02-08T10:27:45.710Z,12.60
2023-02-08T10:28:58.298Z,13.33
2023-02-08T10:30:08.913Z,13.83
2023-02-08T10:31:16.727Z,14.20
2023-02-08T10:32:18.173Z,14.00
2023-02-08T10:33:41.944Z,15.10
2023-02-08T10:34:45.551Z,15.83
2023-02-08T10:35:48.488Z,14.53
2023-02-08T10:36:49.891Z,14.77
2023-02-08T10:37:51.570Z,17.33
2023-02-08T10:38:53.860Z,14.53
2023-02-08T10:39:56.543Z,13.57
2023-02-08T10:41:01.835Z,14.73
2023-02-08T10:42:04.342Z,14.27
2023-02-08T10:43:12.356Z,12.87
2023-02-08T10:44:35.970Z,16.73
2023-02-08T10:45:43.518Z,13.80
2023-02-08T10:46:49.964Z,13.33
2023-02-08T10:47:53.258Z,13.37
2023-02-08T10:49:08.256Z,13.87
2023-02-08T10:50:15.850Z,14.50
2023-02-08T10:51:18.135Z,13.23
2023-02-08T10:52:19.756Z,13.97
2023-02-08T10:53:21.110Z,14.13
2023-02-08T10:54:22.451Z,13.37
2023-02-08T10:55:23.887Z,13.47
2023-02-08T10:56:34.327Z,14.67
2023-02-08T10:57:35.799Z,13.00
2023-02-08T10:58:37.137Z,15.13
2023-02-08T10:59:46.091Z,14.33
2023-02-08T11:00:48.927Z,13.00
2023-02-08T11:01:50.501Z,12.70
2023-02-08T11:02:52.996Z,13.23
2023-02-08T11:04:08.082Z,12.37
2023-02-08T11:05:12.289Z,13.57
2023-02-08T11:06:27.082Z,13.33
2023-02-08T11:07:28.916Z,11.73
2023-02-08T11:08:30.293Z,11.23
2023-02-08T11:09:31.666Z,12.50
2023-02-08T11:10:33.568Z,12.60
2023-02-08T11:11:37.606Z,12.17
2023-02-08T11:12:40.454Z,13.07
2023-02-08T11:13:43.216Z,11.87
2023-02-08T11:14:48.280Z,12.77
2023-02-08T11:15:51.845Z,14.13
2023-02-08T11:16:54.222Z,12.40
2023-02-08T11:17:58.110Z,14.47
2023-02-08T11:19:05.316Z,12.77
2023-02-08T11:20:06.834Z,10.90
2023-02-08T11:21:11.920Z,12.07
2023-02-08T11:22:17.694Z,12.03
2023-02-08T11:23:20.506Z,15.17
2023-02-08T11:24:50.500Z,12.10
2023-02-08T11:25:52.597Z,14.83
2023-02-08T11:26:56.210Z,12.57
2023-02-08T11:27:57.599Z,12.97
2023-02-08T11:29:00.172Z,13.30
2023-02-08T11:30:13.817Z,12.67
2023-02-08T11:31:19.469Z,12.67
2023-02-08T11:32:20.898Z,14.33
2023-02-08T11:33:23.288Z,12.17
2023-02-08T11:34:26.175Z,12.80
2023-02-08T11:35:29.511Z,10.80
2023-02-08T11:36:32.756Z,12.27
2023-02-08T11:37:34.750Z,12.27
2023-02-08T11:38:40.341Z,12.00
2023-02-08T11:39:49.716Z,12.73
2023-02-08T11:40:53.032Z,12.27
2023-02-08T11:41:56.149Z,13.63
2023-02-08T11:42:57.775Z,13.37
2023-02-08T11:44:01.318Z,13.30
2023-02-08T11:45:03.715Z,13.70
2023-02-08T11:46:05.613Z,13.97
2023-02-08T11:47:09.195Z,12.30
2023-02-08T11:48:20.064Z,10.27
2023-02-08T11:49:23.441Z,10.70
2023-02-08T11:50:24.799Z,10.03
2023-02-08T11:51:36.935Z,11.90
2023-02-08T11:52:41.000Z,12.87
2023-02-08T11:53:47.147Z,12.43
2023-02-08T11:54:48.497Z,12.63
2023-02-08T11:56:02.109Z,13.70
2023-02-08T11:57:10.711Z,12.10
2023-02-08T11:58:11.992Z,11.47
2023-02-08T11:59:25.399Z,9.73
2023-02-08T12:00:28.052Z,10.33
2023-02-08T12:01:31.283Z,10.77
2023-02-08T12:02:37.017Z,12.07
2023-02-08T12:03:39.568Z,10.47
2023-02-08T12:04:41.023Z,10.83
2023-02-08T12:06:05.548Z,12.83
2023-02-08T12:07:17.248Z,12.00
2023-02-08T12:08:37.187Z,10.53
2023-02-08T12:09:51.728Z,10.10
2023-02-08T12:10:59.000Z,11.90
2023-02-08T12:12:03.357Z,10.30
2023-02-08T12:13:19.276Z,9.80
2023-02-08T12:14:28.637Z,9.63
2023-02-08T12:15:57.154Z,11.03
2023-02-08T12:16:59.488Z,10.53
2023-02-08T12:18:06.925Z,10.33
2023-02-08T12:19:20.376Z,11.17
2023-02-08T12:20:42.659Z,15.07
2023-02-08T12:21:45.141Z,11.80
2023-02-08T12:23:05.381Z,11.70
2023-02-08T12:24:14.138Z,10.37
2023-02-08T12:25:15.519Z,10.63
2023-02-08T12:26:23.966Z,11.30
2023-02-08T12:27:49.500Z,11.17
2023-02-08T12:29:06.299Z,9.17
2023-02-08T12:30:23.930Z,10.50
2023-02-08T12:31:48.659Z,9.20
2023-02-08T12:33:02.041Z,9.53
2023-02-08T12:34:06.450Z,8.97
2023-02-08T12:35:07.752Z,9.00
2023-02-08T12:36:21.414Z,9.40
2023-02-08T12:37:59.404Z,10.37
2023-02-08T12:39:21.684Z,9.03
2023-02-08T12:40:50.044Z,10.17
2023-02-08T12:42:10.153Z,10.40
2023-02-08T12:43:20.854Z,12.67
2023-02-08T12:44:46.745Z,8.97
2023-02-08T12:45:48.031Z,9.43
2023-02-08T12:47:08.135Z,8.57
2023-02-08T12:48:12.687Z,8.40
2023-02-08T12:49:20.165Z,9.17
2023-02-08T12:50:33.659Z,11.50
2023-02-08T12:51:41.328Z,9.83
2023-02-08T12:52:45.365Z,9.07
2023-02-08T12:53:49.027Z,8.57
2023-02-08T12:55:05.606Z,8.80
2023-02-08T12:56:12.686Z,9.20
2023-02-08T12:57:16.667Z,10.13
2023-02-08T12:58:17.991Z,9.80
2023-02-08T12:59:28.483Z,10.40
2023-02-08T13:00:31.830Z,11.60
2023-02-08T13:01:40.808Z,8.13
2023-02-08T13:02:46.420Z,9.30
2023-02-08T13:03:51.210Z,9.50
2023-02-08T13:04:59.567Z,9.13
2023-02-08T13:06:03.399Z,8.63
2023-02-08T13:07:13.122Z,8.50
2023-02-08T13:08:29.475Z,8.47
2023-02-08T13:09:35.511Z,11.10
2023-02-08T13:10:41.535Z,8.40
2023-02-08T13:11:47.477Z,8.67
2023-02-08T13:12:53.237Z,9.17
2023-02-08T13:14:01.324Z,10.23
2023-02-08T13:15:28.554Z,9.40
2023-02-08T13:16:34.781Z,9.40
2023-02-08T13:17:41.631Z,13.73
2023-02-08T13:18:48.905Z,9.23
2023-02-08T13:20:04.914Z,9.77
2023-02-08T13:21:13.880Z,10.47
2023-02-08T13:22:15.990Z,10.67
2023-02-08T13:23:32.337Z,10.27
2023-02-08T13:24:40.118Z,10.30
2023-02-08T13:25:43.134Z,11.40
2023-02-08T13:26:44.924Z,12.30
2023-02-08T13:27:46.455Z,10.00
2023-02-08T13:28:49.381Z,10.13
2023-02-08T13:29:52.234Z,10.97
2023-02-08T13:30:59.906Z,10.03
2023-02-08T13:32:21.688Z,9.67
2023-02-08T13:33:28.377Z,9.97
2023-02-08T13:34:42.408Z,10.77
2023-02-08T13:35:49.318Z,11.13
2023-02-08T13:36:59.635Z,8.57
2023-02-08T13:38:18.380Z,12.30
2023-02-08T13:39:35.283Z,10.27
2023-02-08T13:40:37.720Z,9.50
2023-02-08T13:41:48.317Z,8.37
2023-02-08T13:42:54.718Z,9.07
2023-02-08T13:44:01.426Z,8.43
2023-02-08T13:45:03.127Z,7.87
2023-02-08T13:46:04.846Z,8.80
2023-02-08T13:47:07.169Z,8.60
2023-02-08T13:48:11.573Z,8.30
2023-02-08T13:49:41.098Z,9.37
2023-02-08T13:50:44.858Z,8.67
2023-02-08T13:51:52.885Z,10.50
2023-02-08T13:52:54.396Z,8.73
2023-02-08T13:53:55.817Z,10.27
2023-02-08T13:55:15.526Z,9.07
2023-02-08T13:56:36.864Z,9.30
2023-02-08T13:57:54.524Z,9.00
2023-02-08T13:58:55.819Z,8.23
2023-02-08T14:00:16.498Z,7.77
2023-02-08T14:01:22.349Z,7.77
2023-02-08T14:02:24.607Z,8.57
2023-02-08T14:03:27.409Z,7.83
2023-02-08T14:04:36.416Z,9.07
2023-02-08T14:05:57.696Z,7.63